Latest Weather Observations for Richmond

IDQ60801

Issued at 1:32 pm EST Sunday 4 December 2016 (issued every 30 minutes, with the page automatically refreshed every 10 minutes)

About weather observations | Map of weather stations | Latest weather observations for QLD | Other Formats
Station Details ID: 030161 Name: RICHMOND AIRPORT Lat: -20.70 Lon: 143.12 Height: 206.3 m
Data from the previous 72 hours. | See also: Recent months at Richmond
Date/Time
EST
Temp
°C
App
Temp
°C
Dew
Point
°C
Rel
Hum
%
Delta-T
°C
Wind Press
QNH
hPa
Press
MSL
hPa
Rain since
9am
mm
Dir  Spd
km/h
Gust
km/h
Spd
kts
Gust
kts
04/01:30pm 40.7 37.0 4.5 11 20.0 NE 13 24 7 13 1010.3 1008.7 0.0
04/01:00pm 39.6 36.4 4.9 12 19.2 ESE 11 20 6 11 1011.0 1009.4 0.0
04/12:30pm 38.6 34.7 5.3 13 18.4 ESE 15 22 8 12 1011.7 1010.1 0.0
04/12:00pm 38.9 35.3 6.6 14 18.2 NW 15 28 8 15 1012.0 1010.4 0.0
04/11:30am 38.3 34.9 6.1 14 18.0 NW 13 20 7 11 1012.6 1011.1 0.0
04/11:00am 36.6 33.3 4.8 14 17.3 NE 11 20 6 11 1012.9 1011.4 0.0
04/10:30am 36.9 32.8 6.0 15 17.1 N 17 24 9 13 1013.3 1011.8 0.0
04/10:00am 35.2 31.2 4.7 15 16.4 NNW 15 24 8 13 1013.5 1012.0 0.0
04/09:30am 34.7 29.8 4.3 15 16.2 NNW 19 26 10 14 1013.7 1012.2 0.0
04/09:00am 33.5 28.6 5.1 17 15.2 NW 20 28 11 15 1013.7 1012.2 0.0
04/08:30am 32.3 26.9 6.5 20 14.1 NW 24 30 13 16 1013.8 1012.3 0.0
04/08:00am 31.0 26.6 7.5 23 12.9 NW 20 24 11 13 1013.7 1012.2 0.0
04/07:30am 29.1 25.2 8.7 28 11.3 NW 19 24 10 13 1013.6 1012.1 0.0
04/07:00am 26.3 24.0 10.5 37 8.9 WNW 13 15 7 8 1013.3 1011.8 0.0
04/06:30am 23.1 22.5 11.8 49 6.4 SW 6 7 3 4 1013.0 1011.5 0.0
04/06:00am 19.8 18.7 12.1 61 4.3 SW 9 11 5 6 1012.6 1011.1 0.0
04/05:30am 20.2 19.5 11.9 59 4.7 W 7 9 4 5 1011.9 1010.3 0.0
04/05:00am 21.8 21.8 9.7 46 6.6 CALM 0 0 0 0 1011.2 1009.6 0.0
04/04:30am 21.1 19.1 10.3 50 5.9 SE 11 19 6 10 1011.1 1009.5 0.0
04/04:00am 22.6 22.2 8.3 40 7.6 CALM 0 0 0 0 1010.5 1008.9 0.0
04/03:30am 24.7 22.7 6.9 32 9.4 NNE 7 9 4 5 1010.4 1008.8 0.0
04/03:00am 25.5 22.7 7.1 31 9.8 NNE 11 15 6 8 1010.2 1008.6 0.0
04/02:30am 27.4 24.4 7.8 29 10.6 N 13 19 7 10 1010.0 1008.4 0.0
04/02:00am 24.5 22.0 6.7 32 9.3 N 9 13 5 7 1010.1 1008.5 0.0
04/01:30am 26.5 22.8 6.5 28 10.6 NNE 15 17 8 9 1010.2 1008.6 0.0
04/01:00am 27.7 24.0 6.5 26 11.3 NE 15 19 8 10 1010.5 1008.9 0.0
04/12:30am 28.4 24.6 5.9 24 11.9 NE 15 19 8 10 1010.6 1009.0 0.0
04/12:00am 28.9 24.8 6.3 24 12.1 NNE 17 20 9 11 1010.7 1009.1 0.0
 
Date/Time
EST
Temp
°C
App
Temp
°C
Dew
Point
°C
Rel
Hum
%
Delta-T
°C
Wind Press
QNH
hPa
Press
MSL
hPa
Rain since
9am
mm
Dir  Spd
km/h
Gust
km/h
Spd
kts
Gust
kts
03/11:30pm 27.6 24.3 6.4 26 11.2 NNE 13 17 7 9 1010.8 1009.2 0.0
03/11:00pm 27.2 24.2 7.6 29 10.6 NNE 13 17 7 9 1010.9 1009.3 0.0
03/10:30pm 30.8 27.6 5.3 20 13.5 NE 11 13 6 7 1010.7 1009.1 0.0
03/10:00pm 28.8 26.6 7.9 27 11.5 NE 9 11 5 6 1010.6 1009.0 0.0
03/09:30pm 32.7 29.9 5.3 18 14.7 ENE 9 13 5 7 1010.1 1008.5 0.0
03/09:00pm 32.8 29.9 4.6 17 15.0 ENE 9 11 5 6 1009.8 1008.2 0.0
03/08:30pm 30.8 28.1 7.3 23 12.9 NE 11 13 6 7 1009.6 1008.0 0.0
03/08:00pm 34.0 30.3 6.3 18 15.2 E 15 17 8 9 1009.1 1007.6 0.0
03/07:30pm 34.3 31.4 6.6 18 15.3 ESE 11 13 6 7 1008.8 1007.3 0.0
03/07:00pm 35.7 32.3 6.0 16 16.4 ESE 13 17 7 9 1008.5 1007.0 0.0
03/06:30pm 38.4 34.8 5.1 13 18.3 ESE 13 19 7 10 1008.4 1006.9 0.0
03/06:00pm 39.6 36.0 4.9 12 19.2 ENE 13 19 7 10 1008.2 1006.7 0.0
03/05:30pm 41.2 38.2 6.1 12 19.9 ESE 11 17 6 9 1008.1 1006.6 0.0
03/05:00pm 41.1 37.7 6.0 12 19.9 NE 13 20 7 11 1008.0 1006.5 0.0
03/04:30pm 40.7 37.9 6.9 13 19.3 E 11 15 6 8 1008.1 1006.6 0.0
03/04:00pm 41.3 37.2 6.2 12 19.9 ESE 17 28 9 15 1008.2 1006.7 0.0
03/03:30pm 41.3 36.6 6.2 12 19.9 ESE 20 33 11 18 1008.4 1006.9 0.0
03/03:00pm 41.6 39.2 8.7 14 19.4 ENE 11 30 6 16 1008.7 1007.2 0.0
03/02:30pm 41.0 37.4 8.2 14 19.1 NE 17 26 9 14 1009.6 1008.0 0.0
03/02:00pm 39.9 38.4 9.3 16 18.0 SE 7 15 4 8 1009.9 1008.3 0.0
03/01:30pm 39.0 37.1 10.4 18 17.1 E 11 20 6 11 1010.4 1008.8 0.0
03/01:00pm 39.4 38.3 10.7 18 17.2 N 7 22 4 12 1010.9 1009.3 0.0
03/12:30pm 39.6 38.2 10.8 18 17.3 WNW 9 24 5 13 1011.3 1009.7 0.0
03/12:00pm 39.1 37.1 12.8 21 16.2 W 15 28 8 15 1011.7 1010.1 0.0
03/11:30am 37.1 36.2 13.8 25 14.5 WNW 11 17 6 9 1012.1 1010.5 0.0
03/11:00am 37.6 36.7 14.8 25 14.4 N 13 22 7 12 1012.5 1011.0 0.0
03/10:30am 35.6 34.9 13.1 25 13.8 NE 9 17 5 9 1012.8 1011.3 0.0
03/10:00am 34.5 33.7 13.9 29 12.7 NNE 11 17 6 9 1013.2 1011.7 0.0
03/09:30am 33.4 32.5 14.9 32 11.5 NE 13 19 7 10 1013.1 1011.6 0.0
03/09:00am 32.0 31.4 16.7 40 9.7 NNE 15 19 8 10 1013.1 1011.6 5.4
03/08:30am 29.5 29.3 17.7 49 7.6 NNE 15 19 8 10 1013.0 1011.5 5.4
03/08:00am 28.8 28.1 17.3 49 7.3 NNE 17 22 9 12 1012.8 1011.3 5.4
03/07:30am 27.0 26.2 17.2 55 6.2 NNE 17 22 9 12 1012.6 1011.1 5.4
03/07:00am 24.9 24.4 17.9 65 4.4 NNE 17 19 9 10 1012.3 1010.8 5.4
03/06:30am 22.6 22.4 17.7 74 3.1 NNE 15 19 8 10 1012.2 1010.6 5.4
03/06:00am 21.1 21.4 17.9 82 2.0 NE 13 17 7 9 1011.8 1010.2 5.4
03/05:30am 21.1 22.2 17.9 82 2.0 ENE 9 11 5 6 1011.9 1010.3 5.4
03/05:00am 21.4 22.5 18.0 81 2.1 ENE 9 11 5 6 1011.7 1010.1 5.4
03/04:30am 21.9 23.0 18.1 79 2.4 N 9 11 5 6 1011.6 1010.0 5.4
03/04:00am 21.5 22.0 18.3 82 2.0 N 13 13 7 7 1011.6 1010.0 5.4
03/03:30am 21.6 22.4 18.2 81 2.1 N 11 13 6 7 1011.6 1010.0 5.4
03/03:00am 22.1 23.3 18.3 79 2.4 N 9 11 5 6 1011.9 1010.3 5.4
03/02:30am 22.2 23.9 18.6 80 2.3 W 7 9 4 5 1012.3 1010.8 5.4
03/02:00am 23.6 24.6 17.8 70 3.7 SW 9 15 5 8 1012.1 1010.5 5.4
03/01:30am 24.5 26.3 18.2 68 4.0 S 6 11 3 6 1012.6 1011.1 5.4
03/01:00am 24.7 23.6 18.6 69 3.9 WSW 22 32 12 17 1011.9 1010.3 5.4
03/12:30am 24.2 25.2 18.6 71 3.6 N 11 13 6 7 1010.7 1009.1 5.4
03/12:00am 25.2 26.0 18.2 65 4.5 NNW 11 15 6 8 1011.0 1009.4 5.4
 
Date/Time
EST
Temp
°C
App
Temp
°C
Dew
Point
°C
Rel
Hum
%
Delta-T
°C
Wind Press
QNH
hPa
Press
MSL
hPa
Rain since
9am
mm
Dir  Spd
km/h
Gust
km/h
Spd
kts
Gust
kts
02/11:30pm 25.3 26.2 18.5 66 4.3 SSW 11 19 6 10 1011.7 1010.1 5.4
02/11:00pm 26.2 26.3 18.3 61 5.1 ESE 15 22 8 12 1011.5 1009.9 5.4
02/10:30pm 26.0 25.2 18.4 63 4.9 N 20 26 11 14 1010.7 1009.1 5.4
02/10:00pm 24.7 25.0 19.5 73 3.4 N 17 24 9 13 1010.8 1009.2 5.4
02/09:30pm 26.1 26.9 18.2 61 5.0 NNW 11 13 6 7 1011.1 1009.5 5.4
02/09:00pm 25.2 23.0 18.6 67 4.2 WSW 28 35 15 19 1011.2 1009.6 5.4
02/08:30pm 23.7 23.2 20.0 80 2.4 WSW 22 24 12 13 1012.3 1010.8 5.2
02/08:00pm 23.6 21.9 19.9 80 2.4 WSW 28 37 15 20 1012.5 1011.0 5.2
02/07:30pm 23.7 22.2 19.4 77 2.8 WSW 26 32 14 17 1012.9 1011.4 4.4
02/07:00pm 28.0 23.7 16.0 48 7.5 SE 33 50 18 27 1011.8 1010.2 1.6
02/06:48pm 30.5 25.8 13.3 35 10.4 SE 30 48 16 26 1011.2 1009.6 1.2
02/06:45pm 30.1 26.3 14.6 39 9.5 SE 28 48 15 26 1011.0 1009.4 1.2
02/06:30pm 32.5 29.5 13.7 32 11.5 N 22 30 12 16 1010.0 1008.4 1.2
02/06:00pm 33.9 31.1 14.4 31 12.1 NNE 22 28 12 15 1009.1 1007.6 1.2
02/05:30pm 34.4 32.3 15.3 31 12.0 NNE 20 32 11 17 1008.8 1007.3 1.2
02/05:00pm 33.4 31.1 16.7 36 10.7 NNE 24 39 13 21 1008.3 1006.8 1.2
02/04:30pm 32.3 28.3 17.7 41 9.4 NE 35 54 19 29 1008.5 1007.0 0.0
02/04:12pm 36.6 32.6 14.0 26 14.1 NE 28 50 15 27 1007.9 1006.4 0.0
02/04:00pm 37.4 33.7 14.0 24 14.6 NNE 26 41 14 22 1007.8 1006.2 0.0
02/03:58pm 37.5 35.0 14.1 24 14.6 NNE 20 41 11 22 1007.8 1006.2 0.0
02/03:30pm 39.6 38.9 13.2 21 16.4 NNW 9 20 5 11 1007.8 1006.2 0.0
02/03:00pm 40.5 39.7 13.9 21 16.8 WNW 11 19 6 10 1008.1 1006.6 0.0
02/02:30pm 40.2 39.5 14.4 22 16.3 NNE 11 37 6 20 1008.3 1006.8 0.0
02/02:00pm 38.3 37.3 13.5 23 15.4 N 11 15 6 8 1008.9 1007.4 0.0
02/01:30pm 38.6 38.4 15.7 26 14.7 W 11 33 6 18 1009.7 1008.1 0.0
02/01:00pm 38.5 38.0 15.0 25 14.9 NNE 11 26 6 14 1010.2 1008.6 0.0
02/12:30pm 38.0 37.4 15.7 26 14.3 NW 13 24 7 13 1011.0 1009.4 0.0
02/12:00pm 38.3 37.1 17.1 28 13.8 WNW 19 44 10 24 1011.5 1009.9 0.0
02/11:30am 36.0 34.3 16.2 31 12.7 NW 20 32 11 17 1011.9 1010.3 0.0
02/11:00am 36.2 34.6 17.4 33 12.2 NW 22 39 12 21 1012.2 1010.6 0.0
02/10:30am 35.6 33.2 17.3 33 11.9 WNW 26 37 14 20 1012.4 1010.9 0.0
02/10:00am 34.9 32.2 17.6 35 11.3 NW 28 41 15 22 1012.7 1011.2 0.0
02/09:30am 33.7 30.8 17.0 37 10.7 NW 28 43 15 23 1012.9 1011.4 0.0
02/09:00am 32.7 30.3 16.5 37 10.3 NW 24 35 13 19 1012.9 1011.4 0.0
02/08:30am 31.9 29.3 17.8 43 9.1 NW 28 35 15 19 1012.8 1011.3 0.0
02/08:00am 31.3 29.7 18.3 46 8.4 NNW 24 30 13 16 1012.5 1011.0 0.0
02/07:30am 30.0 29.2 18.4 49 7.5 NNW 20 30 11 16 1012.3 1010.8 0.0
02/07:00am 28.5 28.2 17.4 51 7.1 NNW 15 20 8 11 1012.1 1010.5 0.0
02/06:30am 27.4 27.6 16.7 52 6.7 NW 11 13 6 7 1011.7 1010.1 0.0
02/06:00am 25.2 24.5 15.5 55 5.9 NW 13 15 7 8 1011.4 1009.8 0.0
02/05:30am 25.4 24.7 15.4 54 6.1 WNW 13 15 7 8 1010.8 1009.2 0.0
02/05:00am 27.3 26.6 16.3 51 6.9 N 15 20 8 11 1009.9 1008.3 0.0
02/04:30am 27.4 26.2 15.1 47 7.5 N 15 22 8 12 1009.6 1008.0 0.0
02/04:00am 27.6 25.9 14.6 45 7.9 NNW 17 24 9 13 1009.3 1007.8 0.0
02/03:30am 27.8 25.5 14.1 43 8.3 N 19 28 10 15 1008.9 1007.4 0.0
02/03:00am 27.7 26.0 13.6 42 8.4 NNW 15 22 8 12 1008.8 1007.3 0.0
02/02:30am 28.0 26.5 13.1 39 8.9 N 13 20 7 11 1008.5 1007.0 0.0
02/02:00am 27.6 25.5 12.4 39 8.9 NW 15 17 8 9 1008.3 1006.8 0.0
02/01:30am 29.0 27.4 12.8 36 9.6 N 13 19 7 10 1008.1 1006.6 0.0
02/01:00am 29.6 26.8 12.5 35 10.1 N 19 24 10 13 1008.0 1006.5 0.0
02/12:30am 29.7 27.5 12.2 34 10.3 N 15 19 8 10 1008.3 1006.8 0.0
02/12:00am 30.1 28.0 12.5 34 10.5 N 15 19 8 10 1008.5 1007.0 0.0
 
Date/Time
EST
Temp
°C
App
Temp
°C
Dew
Point
°C
Rel
Hum
%
Delta-T
°C
Wind Press
QNH
hPa
Press
MSL
hPa
Rain since
9am
mm
Dir  Spd
km/h
Gust
km/h
Spd
kts
Gust
kts
01/11:30pm 30.0 27.4 12.0 33 10.6 NNE 17 22 9 12 1008.7 1007.2 0.0
01/11:00pm 31.1 28.5 12.0 31 11.3 NNE 17 22 9 12 1008.8 1007.3 0.0
01/10:30pm 31.8 28.8 12.1 30 11.7 N 19 24 10 13 1008.5 1007.0 0.0
01/10:00pm 31.7 29.5 12.0 30 11.7 N 15 20 8 11 1008.3 1006.8 0.0
01/09:30pm 32.1 30.0 12.3 29 11.8 N 15 19 8 10 1008.1 1006.6 0.0
01/09:00pm 32.5 30.7 12.2 29 12.1 N 13 17 7 9 1007.8 1006.2 0.0
01/08:30pm 32.6 30.0 10.6 26 12.8 N 15 20 8 11 1007.6 1006.0 0.0
01/08:00pm 32.4 30.2 8.0 22 13.7 WNW 9 9 5 5 1007.1 1005.5 0.0
01/07:30pm 34.5 32.2 7.5 19 15.1 WNW 9 11 5 6 1006.7 1005.1 0.0
01/07:00pm 35.3 32.8 6.6 17 15.9 NW 9 9 5 5 1006.5 1004.9 0.0
01/06:30pm 38.6 36.6 6.3 14 18.1 W 6 9 3 5 1006.2 1004.6 0.0
01/06:00pm 39.1 36.5 7.7 15 18.1 WSW 11 19 6 10 1005.9 1004.3 0.0
01/05:30pm 39.9 37.6 7.4 14 18.6 W 9 22 5 12 1005.7 1004.1 0.0
01/05:00pm 39.8 35.6 7.3 14 18.6 W 19 28 10 15 1005.6 1004.0 0.0
01/04:30pm 40.1 37.7 8.5 15 18.4 WSW 11 20 6 11 1005.6 1004.0 0.0
01/04:00pm 40.6 36.9 7.9 14 19.0 WSW 17 24 9 13 1005.7 1004.1 0.0
01/03:30pm 39.0 35.2 7.7 15 17.9 WSW 17 24 9 13 1006.2 1004.6 0.0
01/03:00pm 39.0 36.3 10.4 18 17.1 W 15 24 8 13 1006.6 1005.0 0.0
01/02:30pm 38.5 36.2 9.1 17 17.2 NW 11 20 6 11 1007.1 1005.5 0.0
01/02:00pm 39.9 36.7 11.9 19 17.1 NW 20 32 11 17 1007.5 1005.9 0.0

Other Formats:

Comma delimited format used in spreadsheet applications
http://www.bom.gov.au/fwo/IDQ60801/IDQ60801.94341.axf

JavaScript Object Notation format (JSON) in row-major order
http://www.bom.gov.au/fwo/IDQ60801/IDQ60801.94341.json